Time;durP1;ratioP1;P1;durP2;ratioP2;P2;SDS_P1;SDS_P2;PMS_P1;PMS_P2;Temp;Humidity;BMP_temperature;BMP_pressure;BME280_temperature;BME280_humidity;BME280_pressure;Samples;Min_cycle;Max_cycle;Signal;HPM_P1;HPM_P2
2021/10/09 00:02:12;;;;;;;19.40;13.80;;;8.10;99.90;;;;;;4957009;29;20041;-73
2021/10/09 00:04:38;;;;;;;24.88;15.00;;;7.80;99.90;;;;;;4957020;28;20038;-73
2021/10/09 00:07:03;;;;;;;20.48;14.30;;;7.60;99.90;;;;;;4957116;28;20375;-73
2021/10/09 00:09:29;;;;;;;24.17;15.15;;;7.30;99.90;;;;;;4943287;28;20536;-73
2021/10/09 00:11:55;;;;;;;23.45;15.45;;;7.30;99.90;;;;;;4966284;28;20032;-73
2021/10/09 00:14:20;;;;;;;22.42;14.77;;;7.70;99.90;;;;;;4939694;29;20031;-72
2021/10/09 00:16:46;;;;;;;18.83;12.40;;;7.60;99.90;;;;;;4966143;28;20026;-72
2021/10/09 00:19:14;;;;;;;18.17;12.50;;;7.80;99.90;;;;;;4960112;28;20027;-73
2021/10/09 00:21:44;;;;;;;23.27;13.95;;;8.10;99.90;;;;;;4956726;29;20375;-73
2021/10/09 00:24:11;;;;;;;17.63;11.63;;;8.10;99.90;;;;;;4956752;29;20031;-73
2021/10/09 00:26:37;;;;;;;22.02;13.02;;;8.00;99.90;;;;;;4956537;28;20078;-73
2021/10/09 00:29:02;;;;;;;19.38;13.82;;;8.00;99.90;;;;;;4956755;28;20492;-73
2021/10/09 00:31:28;;;;;;;23.58;13.65;;;7.50;99.90;;;;;;4956643;29;20023;-73
2021/10/09 00:33:53;;;;;;;24.90;15.18;;;7.50;99.90;;;;;;4956696;29;20027;-73
2021/10/09 00:36:19;;;;;;;22.40;14.85;;;7.60;99.90;;;;;;4956591;29;20379;-73
2021/10/09 00:38:44;;;;;;;23.25;15.48;;;7.50;99.90;;;;;;4956586;28;20086;-73
2021/10/09 00:41:10;;;;;;;27.95;19.58;;;7.40;99.90;;;;;;4956367;28;20256;-72
2021/10/09 00:43:35;;;;;;;30.42;18.75;;;7.40;99.90;;;;;;4939372;29;20034;-73
2021/10/09 00:46:03;;;;;;;23.90;15.65;;;7.50;99.90;;;;;;4941032;29;20083;-73
2021/10/09 00:48:28;;;;;;;20.92;13.43;;;7.60;99.90;;;;;;4956834;29;20118;-72
2021/10/09 00:50:54;;;;;;;20.70;12.38;;;7.70;99.90;;;;;;4956178;29;20105;-72
2021/10/09 00:53:21;;;;;;;19.50;12.75;;;7.90;99.90;;;;;;4939116;29;20043;-72
2021/10/09 00:55:49;;;;;;;20.02;12.68;;;8.00;99.90;;;;;;4938876;29;20572;-72
2021/10/09 00:58:15;;;;;;;24.42;16.23;;;8.10;99.90;;;;;;4938964;28;20054;-72
2021/10/09 01:00:42;;;;;;;23.42;17.75;;;7.90;99.90;;;;;;4955947;29;20441;-72
2021/10/09 01:03:09;;;;;;;21.77;13.85;;;7.60;99.90;;;;;;4955975;28;20031;-72
2021/10/09 01:05:36;;;;;;;20.77;13.23;;;7.70;99.90;;;;;;4938979;29;20038;-72
2021/10/09 01:08:03;;;;;;;19.55;12.60;;;8.00;99.90;;;;;;4956491;28;20043;-72
2021/10/09 01:10:28;;;;;;;19.70;13.30;;;8.10;99.90;;;;;;4949904;28;20054;-72
2021/10/09 01:12:54;;;;;;;20.02;12.05;;;8.00;99.90;;;;;;4957464;28;20498;-73
2021/10/09 01:15:31;;;;;;;20.13;12.38;;;8.10;99.90;;;;;;4938777;29;20509;-73
2021/10/09 01:18:05;;;;;;;20.05;12.93;;;8.10;99.90;;;;;;4968540;28;20027;-73
2021/10/09 01:20:45;;;;;;;21.35;13.73;;;8.10;99.90;;;;;;4955775;29;20024;-72
2021/10/09 01:23:11;;;;;;;19.38;13.52;;;7.90;99.90;;;;;;4955811;28;20031;-73
2021/10/09 01:25:36;;;;;;;24.02;12.98;;;7.90;99.90;;;;;;4955695;29;20577;-73
2021/10/09 01:28:02;;;;;;;18.38;12.95;;;7.90;99.90;;;;;;4938406;29;20529;-73
2021/10/09 01:30:28;;;;;;;22.88;14.20;;;7.90;99.90;;;;;;4955513;28;20078;-73
2021/10/09 01:32:53;;;;;;;20.23;13.77;;;7.80;99.90;;;;;;4938272;29;20074;-73
2021/10/09 01:35:19;;;;;;;21.15;13.77;;;7.70;99.90;;;;;;4922652;29;20023;-73
2021/10/09 01:37:44;;;;;;;26.13;13.77;;;7.70;99.90;;;;;;4936631;29;20098;-73
2021/10/09 01:40:10;;;;;;;19.23;13.57;;;7.60;99.90;;;;;;4936426;29;20028;-73
2021/10/09 01:42:36;;;;;;;20.80;13.88;;;7.50;99.90;;;;;;4936136;29;20031;-73
2021/10/09 01:45:04;;;;;;;20.65;13.75;;;7.50;99.90;;;;;;4919023;29;20040;-73
2021/10/09 01:47:30;;;;;;;21.50;13.57;;;7.60;99.90;;;;;;4936157;29;20035;-73
2021/10/09 01:49:55;;;;;;;20.23;13.70;;;7.50;99.90;;;;;;4935924;29;20019;-73
2021/10/09 01:52:21;;;;;;;19.05;13.52;;;7.50;99.90;;;;;;4936003;29;20028;-72
2021/10/09 01:54:47;;;;;;;18.98;13.60;;;7.50;99.90;;;;;;4936074;29;20494;-72
2021/10/09 01:57:13;;;;;;;24.10;14.45;;;7.50;99.90;;;;;;4918983;29;20038;-73
2021/10/09 01:59:38;;;;;;;20.38;14.23;;;7.60;99.90;;;;;;4935933;29;20044;-73
2021/10/09 02:02:04;;;;;;;22.33;14.07;;;7.70;99.90;;;;;;4936141;29;20039;-72
2021/10/09 02:04:29;;;;;;;18.85;13.90;;;7.70;99.90;;;;;;4935670;29;20056;-72
2021/10/09 02:06:55;;;;;;;19.27;13.63;;;7.70;99.90;;;;;;4935779;29;20027;-72
2021/10/09 02:09:20;;;;;;;22.85;14.65;;;7.70;99.90;;;;;;4944967;28;20110;-73
2021/10/09 02:11:49;;;;;;;23.15;14.65;;;7.70;99.90;;;;;;4965212;28;20503;-73
2021/10/09 02:17:06;;;;;;;28.63;14.73;;;7.70;99.90;;;;;;4963988;28;20039;-73
2021/10/09 02:27:34;;;;;;;24.35;14.55;;;6.70;99.90;;;;;;4954319;29;20493;-73
2021/10/09 02:29:59;;;;;;;26.92;15.38;;;6.80;99.90;;;;;;4954528;28;20033;-72
2021/10/09 02:32:25;;;;;;;21.58;15.27;;;6.90;99.90;;;;;;4937008;29;20400;-72
2021/10/09 02:34:50;;;;;;;25.13;15.57;;;6.50;99.90;;;;;;4954550;28;20100;-72
2021/10/09 02:37:16;;;;;;;24.60;15.93;;;6.60;99.90;;;;;;4954367;29;20120;-72
2021/10/09 02:39:41;;;;;;;25.30;14.85;;;6.60;99.90;;;;;;4954460;29;20062;-72
2021/10/09 02:42:07;;;;;;;23.83;15.13;;;6.60;99.90;;;;;;4954048;29;20027;-72
2021/10/09 02:44:32;;;;;;;23.90;15.35;;;6.70;99.90;;;;;;4954401;28;20460;-72
2021/10/09 02:46:58;;;;;;;23.50;16.27;;;6.60;99.90;;;;;;4954203;29;20035;-73
2021/10/09 02:49:24;;;;;;;20.27;14.57;;;6.50;99.90;;;;;;4954250;29;20024;-72
2021/10/09 02:51:49;;;;;;;20.83;14.82;;;6.50;99.90;;;;;;4953986;29;20031;-72
2021/10/09 02:54:14;;;;;;;21.17;15.40;;;6.40;99.90;;;;;;4954246;28;20028;-72
2021/10/09 02:56:40;;;;;;;24.17;15.93;;;6.50;99.90;;;;;;4936723;29;20170;-72
2021/10/09 02:59:05;;;;;;;23.48;15.85;;;6.50;99.90;;;;;;4954583;28;20023;-74
2021/10/09 03:01:31;;;;;;;23.52;16.50;;;6.40;99.90;;;;;;4936554;29;20038;-74
2021/10/09 03:03:57;;;;;;;22.73;15.63;;;6.40;99.90;;;;;;4953967;29;20034;-74
2021/10/09 03:06:22;;;;;;;22.15;15.95;;;6.00;99.90;;;;;;4953874;29;20058;-74
2021/10/09 03:08:48;;;;;;;24.95;16.77;;;5.70;99.90;;;;;;4953827;28;20032;-74
2021/10/09 03:11:13;;;;;;;24.65;16.52;;;5.90;99.90;;;;;;4936354;29;20023;-74
2021/10/09 03:13:38;;;;;;;23.50;15.68;;;5.90;99.90;;;;;;4936689;29;20086;-74
2021/10/09 03:16:07;;;;;;;25.08;15.48;;;6.00;99.90;;;;;;4940268;28;20102;-74
2021/10/09 03:18:32;;;;;;;25.23;16.77;;;6.10;99.90;;;;;;4962467;28;20035;-73
2021/10/09 03:20:58;;;;;;;24.30;17.05;;;6.00;99.90;;;;;;4953650;29;20641;-74
2021/10/09 03:23:24;;;;;;;23.80;16.80;;;6.00;99.90;;;;;;4953842;28;20520;-73
2021/10/09 03:25:49;;;;;;;24.23;15.93;;;5.90;99.90;;;;;;4953373;29;20020;-74
2021/10/09 03:28:15;;;;;;;23.38;15.60;;;6.00;99.90;;;;;;4953277;29;20035;-74
2021/10/09 03:30:40;;;;;;;25.02;15.95;;;5.90;99.90;;;;;;4953440;29;20026;-74
2021/10/09 03:33:06;;;;;;;21.33;15.70;;;5.90;99.90;;;;;;4953649;29;20525;-74
2021/10/09 03:35:31;;;;;;;19.75;15.93;;;6.00;99.90;;;;;;4936887;29;20024;-74
2021/10/09 03:37:57;;;;;;;22.65;15.60;;;6.00;99.90;;;;;;4917440;29;20111;-74
2021/10/09 03:40:24;;;;;;;25.83;16.10;;;5.90;99.90;;;;;;4934973;29;20019;-74
2021/10/09 03:42:54;;;;;;;30.45;16.52;;;5.80;99.90;;;;;;4935793;29;20056;-74
2021/10/09 03:45:30;;;;;;;25.85;17.02;;;5.70;99.90;;;;;;4917344;29;20119;-73
2021/10/09 03:53:02;;;;;;;29.77;16.33;;;5.80;99.90;;;;;;4948014;28;20024;-74
2021/10/09 03:55:27;;;;;;;21.95;15.75;;;5.70;99.90;;;;;;4953399;28;20031;-74
2021/10/09 03:57:53;;;;;;;20.25;15.38;;;5.70;99.90;;;;;;4936339;29;20019;-74
2021/10/09 04:00:18;;;;;;;24.15;16.05;;;5.70;99.90;;;;;;4953477;29;20023;-74
2021/10/09 04:02:44;;;;;;;22.80;15.10;;;5.80;99.90;;;;;;4936011;29;20030;-74
2021/10/09 04:05:10;;;;;;;25.77;16.85;;;5.80;99.90;;;;;;4936149;29;20032;-74
2021/10/09 04:07:36;;;;;;;23.55;16.88;;;5.90;99.90;;;;;;4953198;28;20031;-74
2021/10/09 04:10:06;;;;;;;23.60;16.58;;;6.00;99.90;;;;;;4961041;28;20027;-74
2021/10/09 04:12:32;;;;;;;20.48;16.35;;;6.10;99.90;;;;;;4957606;28;20030;-74
2021/10/09 04:14:57;;;;;;;28.80;17.70;;;6.10;99.90;;;;;;4953349;29;20106;-74
2021/10/09 04:17:23;;;;;;;26.45;17.45;;;5.90;99.90;;;;;;4965242;28;20069;-74
2021/10/09 04:19:48;;;;;;;26.50;16.65;;;5.80;99.90;;;;;;4936121;29;20043;-73
2021/10/09 04:22:14;;;;;;;22.42;16.65;;;5.50;99.90;;;;;;4953062;29;20036;-74
2021/10/09 04:24:40;;;;;;;23.48;17.25;;;5.40;99.90;;;;;;4953121;29;20067;-73
2021/10/09 04:27:05;;;;;;;26.98;18.23;;;5.10;99.90;;;;;;4952983;29;20287;-74
2021/10/09 04:29:31;;;;;;;31.63;21.05;;;5.20;99.90;;;;;;4953089;29;20031;-74
2021/10/09 04:31:57;;;;;;;28.00;19.35;;;5.20;99.90;;;;;;4935632;29;20497;-73
2021/10/09 04:34:22;;;;;;;28.67;19.23;;;4.90;99.90;;;;;;4953195;29;20027;-73
2021/10/09 04:36:48;;;;;;;33.08;23.83;;;4.80;99.90;;;;;;4935679;29;20490;-73
2021/10/09 04:39:13;;;;;;;51.60;35.80;;;4.60;99.90;;;;;;4955808;28;20114;-74
2021/10/09 04:41:39;;;;;;;57.92;40.33;;;4.80;99.90;;;;;;4956326;28;20081;-73
2021/10/09 04:44:05;;;;;;;54.03;37.35;;;4.80;99.90;;;;;;4939291;29;20122;-73
2021/10/09 04:46:30;;;;;;;36.55;25.33;;;4.90;99.90;;;;;;4956370;29;20500;-73
2021/10/09 04:48:57;;;;;;;42.67;28.75;;;4.70;99.90;;;;;;4939485;29;20028;-74
2021/10/09 04:51:23;;;;;;;40.45;29.23;;;4.80;99.90;;;;;;4925484;29;20569;-74
2021/10/09 04:53:49;;;;;;;39.17;26.48;;;4.80;99.90;;;;;;4937259;29;20035;-74
2021/10/09 04:56:14;;;;;;;43.75;30.75;;;4.90;99.90;;;;;;4936929;29;20047;-74
2021/10/09 04:58:40;;;;;;;39.47;28.48;;;4.90;99.90;;;;;;4920028;29;20032;-74
2021/10/09 05:01:05;;;;;;;38.38;28.40;;;4.70;99.90;;;;;;4919857;29;20043;-74
2021/10/09 05:03:31;;;;;;;32.78;24.63;;;4.90;99.90;;;;;;4956140;29;20055;-74
2021/10/09 05:05:56;;;;;;;35.88;24.67;;;5.00;99.90;;;;;;4938854;29;20027;-74
2021/10/09 05:08:22;;;;;;;32.95;23.40;;;5.20;99.90;;;;;;4938880;29;20106;-74
2021/10/09 05:10:47;;;;;;;31.92;22.25;;;5.20;99.90;;;;;;4951229;28;20027;-74
2021/10/09 05:13:13;;;;;;;33.83;22.85;;;5.30;99.90;;;;;;4938841;29;20497;-74
2021/10/09 05:15:43;;;;;;;37.88;22.95;;;5.30;99.90;;;;;;4939028;28;20123;-74
2021/10/09 05:18:09;;;;;;;34.15;22.75;;;5.20;99.90;;;;;;4967447;28;20082;-74
2021/10/09 05:20:36;;;;;;;31.13;22.13;;;5.10;99.90;;;;;;4938314;29;20019;-74
2021/10/09 05:23:02;;;;;;;32.70;22.60;;;5.20;99.90;;;;;;4955773;29;20062;-74
2021/10/09 05:25:29;;;;;;;30.58;21.63;;;5.20;99.90;;;;;;4955650;28;20497;-74
2021/10/09 05:28:16;;;;;;;33.47;24.10;;;5.20;99.90;;;;;;4955640;29;20038;-75
2021/10/09 05:30:47;;;;;;;35.20;23.17;;;5.30;99.90;;;;;;4955450;28;20386;-74
2021/10/09 05:33:22;;;;;;;32.97;23.02;;;5.30;99.90;;;;;;4955585;28;20023;-75
2021/10/09 05:35:48;;;;;;;36.53;25.55;;;5.30;99.90;;;;;;4955765;29;20019;-74
2021/10/09 05:38:14;;;;;;;33.42;24.00;;;4.70;99.90;;;;;;4938186;29;20031;-75
2021/10/09 05:40:40;;;;;;;35.92;24.50;;;4.60;99.90;;;;;;4955454;29;20023;-74
2021/10/09 05:43:05;;;;;;;33.63;23.60;;;4.40;99.90;;;;;;4938096;29;20508;-75
2021/10/09 05:45:33;;;;;;;32.33;22.42;;;4.50;99.90;;;;;;4955321;28;20150;-74
2021/10/09 05:47:58;;;;;;;36.70;24.10;;;4.60;99.90;;;;;;4955268;29;20036;-74
2021/10/09 05:50:28;;;;;;;29.55;22.30;;;4.70;99.90;;;;;;4937234;29;20390;-74
2021/10/09 05:53:08;;;;;;;30.52;21.67;;;4.70;99.90;;;;;;4955159;29;20094;-74
2021/10/09 05:55:48;;;;;;;35.47;22.55;;;4.70;99.90;;;;;;4955276;29;20034;-74
2021/10/09 05:58:23;;;;;;;33.75;23.50;;;4.60;99.90;;;;;;4937955;29;20023;-74
2021/10/09 06:46:56;;;;;;;36.65;25.90;;;6.30;99.90;;;;;;4953939;29;20051;-74
2021/10/09 07:00:19;;;;;;;36.70;24.43;;;6.80;99.90;;;;;;4954254;29;20558;-74
2021/10/09 07:02:45;;;;;;;35.00;23.90;;;7.00;99.90;;;;;;4953622;28;20346;-74
2021/10/09 07:05:12;;;;;;;35.92;23.35;;;7.00;99.90;;;;;;4953992;29;20082;-74
2021/10/09 07:07:47;;;;;;;33.67;22.83;;;7.10;99.90;;;;;;4939060;29;20016;-74
2021/10/09 07:10:13;;;;;;;31.60;23.77;;;7.20;99.90;;;;;;4958043;28;20034;-74
2021/10/09 07:12:39;;;;;;;33.65;23.52;;;7.30;99.90;;;;;;4957137;28;20402;-74
2021/10/09 07:15:06;;;;;;;32.05;23.25;;;7.40;99.90;;;;;;4953762;28;20046;-75
2021/10/09 07:17:31;;;;;;;32.20;22.90;;;7.40;99.90;;;;;;4966019;28;20479;-75
2021/10/09 07:19:57;;;;;;;31.75;22.35;;;7.50;99.90;;;;;;4953856;28;20072;-74
2021/10/09 07:22:23;;;;;;;33.92;22.15;;;7.50;99.90;;;;;;4953512;29;20035;-75
2021/10/09 07:24:48;;;;;;;34.65;22.67;;;7.60;99.90;;;;;;4936474;29;20043;-74
2021/10/09 07:27:14;;;;;;;34.50;21.83;;;7.70;99.90;;;;;;4936331;29;20031;-74
2021/10/09 07:29:39;;;;;;;32.67;21.15;;;7.80;99.90;;;;;;4953601;28;20028;-74
2021/10/09 07:32:06;;;;;;;30.65;20.75;;;7.80;99.90;;;;;;4953485;28;20035;-74
2021/10/09 07:34:31;;;;;;;35.28;21.48;;;7.90;99.90;;;;;;4953525;29;20446;-75
2021/10/09 07:36:57;;;;;;;34.28;20.48;;;8.00;99.90;;;;;;4936404;29;20035;-74
2021/10/09 07:39:22;;;;;;;31.10;20.73;;;8.10;99.90;;;;;;4953597;29;20031;-74
2021/10/09 07:41:51;;;;;;;31.58;20.50;;;8.20;99.90;;;;;;4936108;29;20027;-74
2021/10/09 07:44:20;;;;;;;30.60;21.63;;;8.20;99.90;;;;;;4936117;28;20519;-74
2021/10/09 07:46:46;;;;;;;29.10;20.52;;;8.30;99.90;;;;;;4953463;28;20433;-75
2021/10/09 07:49:11;;;;;;;30.73;20.55;;;8.40;99.90;;;;;;4953641;29;20032;-74
2021/10/09 07:51:37;;;;;;;30.30;20.70;;;8.40;99.90;;;;;;4935941;29;20126;-74
2021/10/09 07:54:04;;;;;;;25.73;19.25;;;8.50;99.90;;;;;;4936287;29;20028;-74
2021/10/09 07:56:30;;;;;;;26.98;19.92;;;8.60;99.90;;;;;;4953295;29;20030;-74
2021/10/09 07:58:55;;;;;;;27.92;19.05;;;8.60;99.90;;;;;;4936107;29;20027;-74
2021/10/09 08:01:21;;;;;;;32.20;18.73;;;8.60;99.90;;;;;;4935902;29;20031;-75
2021/10/09 08:03:47;;;;;;;29.52;19.25;;;8.70;99.90;;;;;;4936169;29;20042;-75
2021/10/09 08:06:12;;;;;;;28.33;20.05;;;8.80;99.90;;;;;;4953299;29;20019;-75
2021/10/09 08:08:38;;;;;;;30.15;20.08;;;8.80;99.90;;;;;;4937896;28;20191;-74
2021/10/09 08:11:03;;;;;;;29.08;19.98;;;8.80;99.90;;;;;;4969270;28;20027;-74
2021/10/09 08:13:29;;;;;;;31.95;19.63;;;8.90;99.90;;;;;;4954975;28;20034;-74
2021/10/09 08:15:55;;;;;;;27.98;18.58;;;9.00;99.90;;;;;;4959465;28;20031;-74
2021/10/09 08:18:21;;;;;;;31.58;19.02;;;9.00;99.90;;;;;;4949580;29;20027;-75
2021/10/09 08:20:50;;;;;;;26.02;18.58;;;9.10;99.90;;;;;;4956722;29;20031;-74
2021/10/09 08:23:21;;;;;;;28.25;18.92;;;9.20;99.90;;;;;;4956917;29;20034;-74
2021/10/09 08:37:06;;;;;;;29.33;18.77;;;9.50;99.90;;;;;;4956826;29;20034;-75
2021/10/09 08:39:31;;;;;;;27.52;18.45;;;9.50;99.90;;;;;;4956610;28;20117;-75
2021/10/09 08:41:57;;;;;;;26.95;17.83;;;9.60;99.90;;;;;;4956338;29;20474;-74
2021/10/09 08:44:23;;;;;;;25.20;17.90;;;9.60;99.90;;;;;;4956442;29;20058;-74
2021/10/09 08:46:49;;;;;;;25.25;17.77;;;9.70;99.90;;;;;;4956356;29;20070;-75
2021/10/09 08:49:14;;;;;;;25.98;17.60;;;9.70;99.90;;;;;;4956553;28;20019;-75
2021/10/09 08:51:40;;;;;;;25.67;17.60;;;9.90;99.90;;;;;;4956082;29;20167;-74
2021/10/09 08:54:08;;;;;;;25.35;16.00;;;10.00;99.90;;;;;;4939157;29;20023;-75
2021/10/09 08:56:41;;;;;;;24.08;16.67;;;10.10;99.90;;;;;;4939094;29;20113;-75
2021/10/09 08:59:20;;;;;;;27.63;16.70;;;10.20;99.90;;;;;;4939032;29;20105;-74
2021/10/09 09:02:17;;;;;;;23.60;15.43;;;10.30;99.90;;;;;;4956500;28;20031;-73
2021/10/09 09:32:34;;;;;;;22.30;12.70;;;11.00;99.90;;;;;;4955649;29;20038;-73
2021/10/09 09:40:41;;;;;;;17.42;10.88;;;11.20;99.90;;;;;;4955588;29;20028;-73
2021/10/09 09:43:08;;;;;;;19.15;10.73;;;11.40;99.90;;;;;;4955551;28;20107;-73
2021/10/09 09:45:34;;;;;;;15.25;10.05;;;11.40;99.90;;;;;;4956206;28;20054;-73
2021/10/09 09:48:00;;;;;;;15.98;10.07;;;11.50;99.90;;;;;;4956578;29;20417;-74
2021/10/09 09:50:27;;;;;;;16.92;9.68;;;11.50;99.90;;;;;;4955319;29;20033;-73
2021/10/09 09:52:53;;;;;;;15.32;9.38;;;11.70;99.90;;;;;;4955224;29;20023;-73
2021/10/09 09:55:20;;;;;;;18.75;10.75;;;11.60;99.90;;;;;;4955224;29;20028;-73
2021/10/09 09:57:47;;;;;;;14.48;9.80;;;11.70;99.90;;;;;;4955170;28;20034;-73
2021/10/09 10:00:15;;;;;;;14.40;10.20;;;11.70;99.90;;;;;;4955171;28;20062;-73
2021/10/09 10:02:51;;;;;;;13.52;9.77;;;11.80;99.90;;;;;;4955010;29;20037;-73
2021/10/09 10:05:18;;;;;;;15.63;9.68;;;11.70;99.90;;;;;;4955149;29;20031;-73
2021/10/09 10:07:44;;;;;;;16.80;10.38;;;11.90;99.90;;;;;;4954878;28;20058;-73
2021/10/09 10:10:10;;;;;;;15.20;10.13;;;12.00;99.90;;;;;;4963719;28;20100;-73
2021/10/09 10:12:37;;;;;;;15.68;8.90;;;12.10;99.90;;;;;;4941246;29;20063;-73
2021/10/09 10:15:05;;;;;;;14.90;9.60;;;12.10;99.90;;;;;;4937697;29;20027;-73
2021/10/09 10:17:41;;;;;;;11.02;8.13;;;12.20;99.90;;;;;;4966825;28;20031;-73
2021/10/09 10:20:14;;;;;;;13.55;8.75;;;12.10;99.90;;;;;;4937579;29;20122;-73
2021/10/09 10:22:40;;;;;;;16.13;8.90;;;12.20;99.90;;;;;;4937258;29;20033;-74
2021/10/09 10:25:24;;;;;;;12.55;8.88;;;12.20;99.90;;;;;;4937462;29;20031;-73
2021/10/09 10:28:06;;;;;;;14.23;8.70;;;12.30;99.90;;;;;;4918281;29;20426;-73
2021/10/09 10:31:01;;;;;;;12.63;8.40;;;12.40;99.90;;;;;;4935396;29;20024;-73
2021/10/09 10:33:30;;;;;;;14.20;7.78;;;12.60;99.90;;;;;;4935336;29;20037;-73
2021/10/09 10:35:56;;;;;;;14.75;8.48;;;12.60;99.90;;;;;;4935255;29;20024;-74
2021/10/09 10:38:22;;;;;;;13.65;8.10;;;12.60;99.90;;;;;;4935171;29;20035;-73
2021/10/09 10:40:54;;;;;;;12.93;7.47;;;12.60;99.90;;;;;;4918356;29;20496;-73
2021/10/09 10:43:33;;;;;;;12.45;7.43;;;12.60;99.90;;;;;;4918044;29;20110;-73
2021/10/09 10:46:01;;;;;;;13.68;7.20;;;12.60;99.90;;;;;;4935282;29;20106;-73
2021/10/09 10:48:43;;;;;;;13.25;7.60;;;12.70;99.90;;;;;;4935518;29;20024;-73
2021/10/09 10:51:29;;;;;;;15.35;7.40;;;12.70;99.90;;;;;;4935187;29;20050;-73
2021/10/09 10:57:00;;;;;;;16.13;7.78;;;12.80;99.90;;;;;;4941835;29;20023;-73
2021/10/09 10:59:57;;;;;;;11.07;7.30;;;12.80;99.90;;;;;;4936840;29;20035;-73
2021/10/09 11:02:39;;;;;;;15.75;7.60;;;12.90;99.90;;;;;;4953908;28;20115;-73
2021/10/09 11:05:11;;;;;;;17.30;7.32;;;12.90;99.90;;;;;;4917921;29;20032;-73
2021/10/09 11:07:42;;;;;;;14.55;6.75;;;12.90;99.90;;;;;;4934735;29;20039;-73
2021/10/09 11:10:16;;;;;;;10.43;6.68;;;13.00;99.90;;;;;;4961858;28;20022;-73
2021/10/09 11:12:44;;;;;;;15.77;7.07;;;13.00;99.90;;;;;;4956894;28;20054;-73
2021/10/09 11:15:20;;;;;;;9.10;6.20;;;13.00;99.90;;;;;;4954511;29;20027;-73
2021/10/09 11:17:56;;;;;;;10.02;6.63;;;13.00;99.90;;;;;;4966454;28;20055;-73
2021/10/09 11:20:24;;;;;;;10.77;6.22;;;13.10;99.90;;;;;;4953829;29;20031;-73
2021/10/09 11:22:53;;;;;;;12.93;6.47;;;13.10;99.90;;;;;;4953574;28;20037;-73
2021/10/09 11:25:30;;;;;;;10.85;6.78;;;13.20;99.90;;;;;;4936507;29;20035;-73
2021/10/09 11:27:58;;;;;;;9.32;6.28;;;13.20;99.90;;;;;;4953624;29;20090;-73
2021/10/09 11:30:24;;;;;;;9.93;5.72;;;13.30;99.90;;;;;;4953725;28;20020;-73
2021/10/09 11:32:53;;;;;;;9.02;6.38;;;13.30;99.90;;;;;;4953585;28;20078;-73
2021/10/09 11:35:29;;;;;;;11.55;6.15;;;13.40;99.90;;;;;;4953692;28;20082;-74
2021/10/09 11:37:54;;;;;;;9.10;6.00;;;13.50;99.90;;;;;;4936385;29;20031;-73
2021/10/09 11:40:38;;;;;;;13.02;6.32;;;13.90;99.90;;;;;;4953575;29;20110;-74
2021/10/09 11:46:06;;;;;;;10.25;5.60;;;15.00;99.90;;;;;;4939596;29;20049;-74
2021/10/09 11:54:46;;;;;;;8.10;5.03;;;16.40;99.90;;;;;;4957730;28;20058;-74
2021/10/09 11:57:11;;;;;;;9.85;4.97;;;17.30;99.90;;;;;;4940155;29;20114;-74
2021/10/09 11:59:38;;;;;;;9.60;5.55;;;17.60;99.90;;;;;;4957293;29;20505;-74
2021/10/09 12:02:04;;;;;;;8.38;5.32;;;17.80;99.90;;;;;;4939856;29;20401;-74
2021/10/09 12:04:30;;;;;;;9.57;5.32;;;18.20;99.90;;;;;;4957143;29;20027;-74
2021/10/09 12:07:01;;;;;;;9.75;5.13;;;18.20;99.20;;;;;;4957465;29;20019;-74
2021/10/09 12:09:57;;;;;;;10.18;4.82;;;17.90;99.00;;;;;;4960336;28;20014;-74
2021/10/09 12:12:27;;;;;;;5.97;4.95;;;17.80;97.90;;;;;;4962486;28;20027;-74
2021/10/09 12:14:53;;;;;;;9.68;4.95;;;18.20;97.70;;;;;;4940324;29;20408;-74
2021/10/09 12:17:22;;;;;;;6.80;4.90;;;17.40;97.20;;;;;;4951650;28;20031;-74
2021/10/09 12:19:58;;;;;;;7.72;4.78;;;16.90;99.20;;;;;;4957058;29;20486;-74
2021/10/09 12:22:25;;;;;;;10.93;4.32;;;16.50;98.10;;;;;;4939506;29;20027;-74
2021/10/09 12:24:52;;;;;;;10.00;4.80;;;16.30;98.50;;;;;;4956918;29;20023;-74
2021/10/09 12:27:21;;;;;;;9.68;4.50;;;16.40;99.00;;;;;;4956660;28;20054;-74
2021/10/09 12:30:08;;;;;;;7.18;4.38;;;16.50;98.30;;;;;;4956865;28;20016;-74
2021/10/09 12:32:46;;;;;;;7.57;4.40;;;16.90;98.80;;;;;;4920341;29;20085;-74
2021/10/09 12:35:14;;;;;;;7.85;4.75;;;17.50;98.60;;;;;;4937762;29;20031;-74
2021/10/09 12:38:03;;;;;;;9.05;4.80;;;17.80;96.90;;;;;;4937925;29;20178;-74
2021/10/09 12:40:42;;;;;;;7.88;5.05;;;18.50;96.60;;;;;;4937389;29;20026;-74
2021/10/09 12:43:13;;;;;;;9.75;5.15;;;18.70;95.40;;;;;;4937283;29;20110;-74
2021/10/09 12:45:42;;;;;;;8.52;4.80;;;19.60;94.90;;;;;;4937344;29;20038;-74
2021/10/09 12:48:08;;;;;;;7.72;4.50;;;19.20;93.00;;;;;;4937209;29;20022;-74
2021/10/09 12:50:36;;;;;;;11.90;4.75;;;19.20;93.50;;;;;;4936994;29;20035;-74
2021/10/09 12:53:03;;;;;;;5.50;4.75;;;19.80;92.70;;;;;;4937083;29;20020;-75
2021/10/09 12:55:33;;;;;;;7.47;4.82;;;19.80;92.20;;;;;;4937241;29;20098;-74
2021/10/09 12:58:01;;;;;;;10.88;5.13;;;20.10;93.10;;;;;;4937251;29;20075;-74
2021/10/09 13:00:28;;;;;;;8.93;5.20;;;20.00;91.90;;;;;;4936748;29;20442;-74
2021/10/09 13:02:54;;;;;;;8.90;5.72;;;20.30;91.80;;;;;;4936735;29;20032;-75
2021/10/09 13:05:21;;;;;;;9.45;5.40;;;21.00;92.40;;;;;;4936930;29;20111;-74
2021/10/09 13:07:47;;;;;;;7.97;5.28;;;20.30;91.10;;;;;;4936922;29;20064;-74
2021/10/09 13:10:13;;;;;;;8.18;4.95;;;20.80;91.30;;;;;;4964446;28;20023;-75
2021/10/09 13:12:38;;;;;;;6.82;4.90;;;21.40;91.20;;;;;;4959259;28;20031;-75
2021/10/09 13:15:05;;;;;;;8.48;5.68;;;21.20;88.50;;;;;;4956025;29;20031;-75
2021/10/09 13:17:30;;;;;;;9.10;5.47;;;21.50;89.60;;;;;;4968838;28;20053;-74
2021/10/09 13:19:56;;;;;;;9.48;5.35;;;22.40;88.90;;;;;;4955973;29;20031;-75
2021/10/09 13:22:21;;;;;;;7.80;5.53;;;22.00;86.60;;;;;;4955665;29;20031;-75
2021/10/09 13:24:47;;;;;;;9.27;5.80;;;22.10;88.00;;;;;;4955957;28;20458;-74
2021/10/09 13:27:12;;;;;;;8.02;5.40;;;22.50;85.80;;;;;;4938338;29;20421;-75
2021/10/09 13:29:38;;;;;;;10.15;6.10;;;22.10;88.50;;;;;;4955777;29;20077;-75
2021/10/09 13:32:04;;;;;;;11.25;5.78;;;22.40;89.70;;;;;;4955327;29;20047;-75
2021/10/09 13:34:30;;;;;;;8.15;6.22;;;22.10;87.80;;;;;;4938531;29;20114;-75
2021/10/09 13:36:56;;;;;;;10.02;5.97;;;22.60;86.90;;;;;;4955597;28;20602;-74
2021/10/09 13:39:21;;;;;;;7.97;5.60;;;23.10;88.10;;;;;;4938339;29;20553;-74
2021/10/09 13:41:47;;;;;;;7.35;5.47;;;24.30;84.50;;;;;;4955286;28;20118;-75
2021/10/09 13:44:12;;;;;;;8.10;5.47;;;24.80;82.80;;;;;;4955267;29;20371;-75
2021/10/09 13:46:38;;;;;;;8.70;5.55;;;24.40;80.90;;;;;;4955301;28;20035;-75
2021/10/09 13:49:07;;;;;;;9.27;6.00;;;24.20;83.20;;;;;;4955715;28;20382;-74
2021/10/09 13:51:33;;;;;;;8.25;5.80;;;25.20;80.40;;;;;;4955125;29;20030;-75
2021/10/09 13:53:59;;;;;;;8.65;6.18;;;26.30;82.80;;;;;;4955346;29;20106;-75
2021/10/09 13:56:25;;;;;;;8.70;5.80;;;25.10;79.30;;;;;;4955114;29;20038;-75
2021/10/09 13:58:50;;;;;;;10.15;6.35;;;24.00;81.30;;;;;;4955273;29;20058;-75
2021/10/09 14:01:16;;;;;;;8.18;6.22;;;23.70;80.20;;;;;;4937590;28;20051;-75
2021/10/09 14:03:44;;;;;;;7.22;5.30;;;23.90;79.40;;;;;;4937829;29;20486;-75
2021/10/09 14:06:09;;;;;;;9.23;5.40;;;24.60;80.00;;;;;;4955001;28;20015;-75
2021/10/09 14:08:35;;;;;;;9.57;5.57;;;25.20;78.70;;;;;;4954993;28;20023;-75
2021/10/09 14:11:00;;;;;;;7.53;5.45;;;25.40;78.10;;;;;;4967196;28;20375;-75
2021/10/09 14:13:27;;;;;;;8.27;5.85;;;25.50;77.70;;;;;;4954930;29;20106;-75
2021/10/09 14:15:53;;;;;;;8.23;5.60;;;25.50;77.20;;;;;;4956887;28;20023;-75
2021/10/09 14:18:19;;;;;;;8.38;6.00;;;23.10;78.30;;;;;;4947658;29;20224;-74
2021/10/09 14:20:47;;;;;;;8.25;5.90;;;21.80;80.00;;;;;;4937465;29;20106;-74
2021/10/09 14:23:13;;;;;;;10.05;5.70;;;20.80;83.40;;;;;;4937606;29;20027;-74
2021/10/09 14:25:38;;;;;;;9.90;5.85;;;19.80;84.70;;;;;;4937453;29;20122;-74
2021/10/09 14:28:04;;;;;;;9.30;5.65;;;18.90;86.70;;;;;;4954483;28;20158;-74
2021/10/09 14:30:30;;;;;;;9.63;5.45;;;18.80;86.70;;;;;;4954471;29;20026;-74
2021/10/09 14:32:56;;;;;;;8.32;5.57;;;18.70;87.90;;;;;;4937290;29;20032;-74
2021/10/09 14:35:23;;;;;;;8.27;5.82;;;18.00;89.40;;;;;;4954503;29;20046;-74
2021/10/09 14:37:48;;;;;;;9.13;6.18;;;18.00;90.80;;;;;;4954554;29;20082;-74
2021/10/09 14:40:15;;;;;;;10.40;6.40;;;17.90;91.10;;;;;;4954421;29;20052;-74
2021/10/09 14:42:44;;;;;;;8.13;5.60;;;17.30;91.10;;;;;;4937240;29;20426;-74
2021/10/09 14:45:10;;;;;;;12.07;6.13;;;16.60;91.40;;;;;;4954134;29;20027;-73
2021/10/09 14:47:42;;;;;;;12.45;6.93;;;16.80;91.80;;;;;;4954303;29;20034;-73
2021/10/09 14:53:21;;;;;;;12.30;6.65;;;17.10;92.40;;;;;;4933554;29;20118;-74
2021/10/09 15:19:42;;;;;;;11.52;6.28;;;23.50;87.90;;;;;;4954278;29;20114;-74